sensor_id;sensor_type;location;lat;lon;timestamp;P1;durP1;ratioP1;P2;durP2;ratioP2
3000;SDS011;1510;51.072;6.678;2022-12-18T00:02:07;205.88;;;195.90;;
3000;SDS011;1510;51.072;6.678;2022-12-18T00:04:34;201.02;;;191.77;;
3000;SDS011;1510;51.072;6.678;2022-12-18T00:07:01;194.95;;;185.50;;
3000;SDS011;1510;51.072;6.678;2022-12-18T00:09:27;191.48;;;181.75;;
3000;SDS011;1510;51.072;6.678;2022-12-18T00:11:54;181.52;;;173.25;;
3000;SDS011;1510;51.072;6.678;2022-12-18T00:14:21;174.90;;;166.63;;
3000;SDS011;1510;51.072;6.678;2022-12-18T00:16:49;186.77;;;178.05;;
3000;SDS011;1510;51.072;6.678;2022-12-18T00:19:16;182.20;;;173.60;;
3000;SDS011;1510;51.072;6.678;2022-12-18T00:21:43;195.98;;;183.60;;
3000;SDS011;1510;51.072;6.678;2022-12-18T00:24:10;218.63;;;203.88;;
3000;SDS011;1510;51.072;6.678;2022-12-18T00:26:38;210.80;;;196.77;;
3000;SDS011;1510;51.072;6.678;2022-12-18T00:29:06;259.15;;;246.45;;
3000;SDS011;1510;51.072;6.678;2022-12-18T00:31:34;276.92;;;261.38;;
3000;SDS011;1510;51.072;6.678;2022-12-18T00:34:02;278.88;;;264.65;;
3000;SDS011;1510;51.072;6.678;2022-12-18T00:36:30;283.45;;;268.00;;
3000;SDS011;1510;51.072;6.678;2022-12-18T00:38:59;270.63;;;254.98;;
3000;SDS011;1510;51.072;6.678;2022-12-18T00:41:27;232.20;;;218.95;;
3000;SDS011;1510;51.072;6.678;2022-12-18T00:44:26;212.60;;;202.18;;
3000;SDS011;1510;51.072;6.678;2022-12-18T00:46:52;182.23;;;173.13;;
3000;SDS011;1510;51.072;6.678;2022-12-18T00:49:21;157.52;;;150.52;;
3000;SDS011;1510;51.072;6.678;2022-12-18T00:51:47;140.82;;;133.80;;
3000;SDS011;1510;51.072;6.678;2022-12-18T00:54:14;131.93;;;125.55;;
3000;SDS011;1510;51.072;6.678;2022-12-18T00:56:41;127.15;;;120.50;;
3000;SDS011;1510;51.072;6.678;2022-12-18T00:59:08;114.90;;;108.88;;
3000;SDS011;1510;51.072;6.678;2022-12-18T01:01:35;88.28;;;83.38;;
3000;SDS011;1510;51.072;6.678;2022-12-18T01:04:02;79.20;;;73.97;;
3000;SDS011;1510;51.072;6.678;2022-12-18T01:06:31;63.65;;;58.92;;
3000;SDS011;1510;51.072;6.678;2022-12-18T01:08:57;60.40;;;56.47;;
3000;SDS011;1510;51.072;6.678;2022-12-18T01:11:24;57.05;;;53.00;;
3000;SDS011;1510;51.072;6.678;2022-12-18T01:13:51;60.70;;;56.65;;
3000;SDS011;1510;51.072;6.678;2022-12-18T01:16:19;57.90;;;54.03;;
3000;SDS011;1510;51.072;6.678;2022-12-18T01:18:45;57.22;;;52.53;;
3000;SDS011;1510;51.072;6.678;2022-12-18T01:21:13;56.42;;;52.13;;
3000;SDS011;1510;51.072;6.678;2022-12-18T01:23:42;58.33;;;53.95;;
3000;SDS011;1510;51.072;6.678;2022-12-18T01:26:09;77.22;;;72.72;;
3000;SDS011;1510;51.072;6.678;2022-12-18T01:28:38;114.35;;;107.15;;
3000;SDS011;1510;51.072;6.678;2022-12-18T01:31:15;137.63;;;129.82;;
3000;SDS011;1510;51.072;6.678;2022-12-18T01:33:44;176.27;;;167.63;;
3000;SDS011;1510;51.072;6.678;2022-12-18T01:36:14;196.55;;;188.45;;
3000;SDS011;1510;51.072;6.678;2022-12-18T01:38:43;215.70;;;205.70;;
3000;SDS011;1510;51.072;6.678;2022-12-18T01:41:10;194.52;;;186.15;;
3000;SDS011;1510;51.072;6.678;2022-12-18T01:43:51;168.80;;;160.15;;
3000;SDS011;1510;51.072;6.678;2022-12-18T01:46:20;140.88;;;133.85;;
3000;SDS011;1510;51.072;6.678;2022-12-18T01:48:48;133.57;;;126.93;;
3000;SDS011;1510;51.072;6.678;2022-12-18T01:51:17;109.90;;;104.03;;
3000;SDS011;1510;51.072;6.678;2022-12-18T01:53:45;104.57;;;99.18;;
3000;SDS011;1510;51.072;6.678;2022-12-18T01:56:13;103.50;;;97.15;;
3000;SDS011;1510;51.072;6.678;2022-12-18T01:58:46;104.68;;;99.55;;
3000;SDS011;1510;51.072;6.678;2022-12-18T02:01:18;119.00;;;112.95;;
3000;SDS011;1510;51.072;6.678;2022-12-18T02:03:46;134.25;;;127.78;;
3000;SDS011;1510;51.072;6.678;2022-12-18T02:06:13;121.80;;;115.82;;
3000;SDS011;1510;51.072;6.678;2022-12-18T02:08:48;125.60;;;119.35;;
3000;SDS011;1510;51.072;6.678;2022-12-18T02:11:23;123.15;;;117.28;;
3000;SDS011;1510;51.072;6.678;2022-12-18T02:14:00;151.20;;;143.82;;
3000;SDS011;1510;51.072;6.678;2022-12-18T02:16:34;191.27;;;182.10;;
3000;SDS011;1510;51.072;6.678;2022-12-18T02:19:08;213.07;;;204.43;;
3000;SDS011;1510;51.072;6.678;2022-12-18T02:21:48;230.63;;;221.27;;
3000;SDS011;1510;51.072;6.678;2022-12-18T02:24:30;225.82;;;216.93;;
3000;SDS011;1510;51.072;6.678;2022-12-18T02:27:02;228.90;;;218.48;;
3000;SDS011;1510;51.072;6.678;2022-12-18T02:29:31;244.13;;;233.20;;
3000;SDS011;1510;51.072;6.678;2022-12-18T02:32:04;258.13;;;247.32;;
3000;SDS011;1510;51.072;6.678;2022-12-18T02:34:39;275.10;;;263.50;;
3000;SDS011;1510;51.072;6.678;2022-12-18T02:37:09;258.98;;;248.38;;
3000;SDS011;1510;51.072;6.678;2022-12-18T02:39:39;279.75;;;267.33;;
3000;SDS011;1510;51.072;6.678;2022-12-18T02:42:10;272.55;;;260.38;;
3000;SDS011;1510;51.072;6.678;2022-12-18T02:44:41;269.90;;;257.95;;
3000;SDS011;1510;51.072;6.678;2022-12-18T02:47:09;247.48;;;236.38;;
3000;SDS011;1510;51.072;6.678;2022-12-18T02:49:40;250.50;;;239.38;;
3000;SDS011;1510;51.072;6.678;2022-12-18T02:52:17;244.35;;;232.90;;
3000;SDS011;1510;51.072;6.678;2022-12-18T02:54:51;218.93;;;208.52;;
3000;SDS011;1510;51.072;6.678;2022-12-18T02:57:30;204.25;;;194.27;;
3000;SDS011;1510;51.072;6.678;2022-12-18T03:00:02;212.23;;;201.52;;
3000;SDS011;1510;51.072;6.678;2022-12-18T03:02:33;188.77;;;179.43;;
3000;SDS011;1510;51.072;6.678;2022-12-18T03:05:05;185.52;;;177.05;;
3000;SDS011;1510;51.072;6.678;2022-12-18T03:07:40;176.90;;;168.20;;
3000;SDS011;1510;51.072;6.678;2022-12-18T03:10:12;183.30;;;174.23;;
3000;SDS011;1510;51.072;6.678;2022-12-18T03:12:45;158.43;;;151.02;;
3000;SDS011;1510;51.072;6.678;2022-12-18T03:15:18;146.00;;;138.85;;
3000;SDS011;1510;51.072;6.678;2022-12-18T03:17:52;128.80;;;121.68;;
3000;SDS011;1510;51.072;6.678;2022-12-18T03:20:22;114.40;;;107.80;;
3000;SDS011;1510;51.072;6.678;2022-12-18T03:22:52;104.95;;;99.65;;
3000;SDS011;1510;51.072;6.678;2022-12-18T03:25:21;91.53;;;86.68;;
3000;SDS011;1510;51.072;6.678;2022-12-18T03:27:51;85.10;;;80.10;;
3000;SDS011;1510;51.072;6.678;2022-12-18T03:30:21;74.50;;;69.95;;
3000;SDS011;1510;51.072;6.678;2022-12-18T03:32:48;71.20;;;66.18;;
3000;SDS011;1510;51.072;6.678;2022-12-18T03:35:21;69.28;;;64.57;;
3000;SDS011;1510;51.072;6.678;2022-12-18T03:37:52;61.47;;;57.42;;
3000;SDS011;1510;51.072;6.678;2022-12-18T03:40:19;60.08;;;55.22;;
3000;SDS011;1510;51.072;6.678;2022-12-18T03:42:52;58.92;;;54.60;;
3000;SDS011;1510;51.072;6.678;2022-12-18T03:45:27;55.38;;;51.42;;
3000;SDS011;1510;51.072;6.678;2022-12-18T03:48:01;55.58;;;51.53;;
3000;SDS011;1510;51.072;6.678;2022-12-18T03:50:35;67.07;;;62.53;;
3000;SDS011;1510;51.072;6.678;2022-12-18T03:53:13;71.13;;;66.97;;
3000;SDS011;1510;51.072;6.678;2022-12-18T03:55:48;93.00;;;87.28;;
3000;SDS011;1510;51.072;6.678;2022-12-18T03:58:18;102.88;;;97.55;;
3000;SDS011;1510;51.072;6.678;2022-12-18T04:00:49;114.55;;;108.25;;
3000;SDS011;1510;51.072;6.678;2022-12-18T04:03:18;103.25;;;98.10;;
3000;SDS011;1510;51.072;6.678;2022-12-18T04:05:47;109.05;;;103.47;;
3000;SDS011;1510;51.072;6.678;2022-12-18T04:08:16;115.53;;;109.88;;
3000;SDS011;1510;51.072;6.678;2022-12-18T04:10:44;120.13;;;113.68;;
3000;SDS011;1510;51.072;6.678;2022-12-18T04:13:10;123.47;;;117.57;;
3000;SDS011;1510;51.072;6.678;2022-12-18T04:15:38;127.57;;;121.72;;
3000;SDS011;1510;51.072;6.678;2022-12-18T04:18:07;129.38;;;123.13;;
3000;SDS011;1510;51.072;6.678;2022-12-18T04:20:34;144.70;;;137.35;;
3000;SDS011;1510;51.072;6.678;2022-12-18T04:23:00;139.55;;;132.90;;
3000;SDS011;1510;51.072;6.678;2022-12-18T04:25:27;148.20;;;141.13;;
3000;SDS011;1510;51.072;6.678;2022-12-18T04:27:54;173.55;;;165.13;;
3000;SDS011;1510;51.072;6.678;2022-12-18T04:30:20;153.93;;;145.38;;
3000;SDS011;1510;51.072;6.678;2022-12-18T04:32:49;121.05;;;114.90;;
3000;SDS011;1510;51.072;6.678;2022-12-18T04:35:15;103.40;;;97.15;;
3000;SDS011;1510;51.072;6.678;2022-12-18T04:37:42;87.60;;;82.45;;
3000;SDS011;1510;51.072;6.678;2022-12-18T04:40:09;78.55;;;73.88;;
3000;SDS011;1510;51.072;6.678;2022-12-18T04:42:37;79.53;;;75.35;;
3000;SDS011;1510;51.072;6.678;2022-12-18T04:45:05;85.65;;;80.60;;
3000;SDS011;1510;51.072;6.678;2022-12-18T04:47:33;95.07;;;89.88;;
3000;SDS011;1510;51.072;6.678;2022-12-18T04:50:01;87.70;;;82.53;;
3000;SDS011;1510;51.072;6.678;2022-12-18T04:52:28;73.60;;;69.05;;
3000;SDS011;1510;51.072;6.678;2022-12-18T04:54:57;70.95;;;66.68;;
3000;SDS011;1510;51.072;6.678;2022-12-18T04:57:24;72.32;;;67.35;;
3000;SDS011;1510;51.072;6.678;2022-12-18T04:59:53;65.07;;;60.42;;
3000;SDS011;1510;51.072;6.678;2022-12-18T05:02:19;67.45;;;62.70;;
3000;SDS011;1510;51.072;6.678;2022-12-18T05:04:46;64.40;;;59.47;;
3000;SDS011;1510;51.072;6.678;2022-12-18T05:07:14;68.35;;;64.00;;
3000;SDS011;1510;51.072;6.678;2022-12-18T05:09:41;69.28;;;64.18;;
3000;SDS011;1510;51.072;6.678;2022-12-18T05:12:07;72.95;;;68.50;;
3000;SDS011;1510;51.072;6.678;2022-12-18T05:14:34;78.45;;;72.97;;
3000;SDS011;1510;51.072;6.678;2022-12-18T05:17:01;77.82;;;72.22;;
3000;SDS011;1510;51.072;6.678;2022-12-18T05:19:27;79.03;;;74.03;;
3000;SDS011;1510;51.072;6.678;2022-12-18T05:21:54;72.68;;;67.78;;
3000;SDS011;1510;51.072;6.678;2022-12-18T05:24:22;66.90;;;62.25;;
3000;SDS011;1510;51.072;6.678;2022-12-18T05:26:49;66.22;;;60.92;;
3000;SDS011;1510;51.072;6.678;2022-12-18T05:29:16;73.70;;;66.95;;
3000;SDS011;1510;51.072;6.678;2022-12-18T05:31:42;66.80;;;61.88;;
3000;SDS011;1510;51.072;6.678;2022-12-18T05:34:09;58.33;;;53.50;;
3000;SDS011;1510;51.072;6.678;2022-12-18T05:36:36;53.63;;;48.53;;
3000;SDS011;1510;51.072;6.678;2022-12-18T05:39:03;54.63;;;50.47;;
3000;SDS011;1510;51.072;6.678;2022-12-18T05:41:31;60.40;;;56.08;;
3000;SDS011;1510;51.072;6.678;2022-12-18T05:43:57;65.43;;;60.92;;
3000;SDS011;1510;51.072;6.678;2022-12-18T05:46:25;67.55;;;62.97;;
3000;SDS011;1510;51.072;6.678;2022-12-18T05:48:52;62.08;;;57.88;;
3000;SDS011;1510;51.072;6.678;2022-12-18T05:51:19;71.30;;;66.50;;
3000;SDS011;1510;51.072;6.678;2022-12-18T05:53:48;74.28;;;69.40;;
3000;SDS011;1510;51.072;6.678;2022-12-18T05:56:15;70.43;;;65.63;;
3000;SDS011;1510;51.072;6.678;2022-12-18T05:58:46;70.68;;;66.45;;
3000;SDS011;1510;51.072;6.678;2022-12-18T06:01:14;74.40;;;68.93;;
3000;SDS011;1510;51.072;6.678;2022-12-18T06:03:42;74.18;;;68.97;;
3000;SDS011;1510;51.072;6.678;2022-12-18T06:06:13;84.72;;;79.30;;
3000;SDS011;1510;51.072;6.678;2022-12-18T06:08:40;91.05;;;84.95;;
3000;SDS011;1510;51.072;6.678;2022-12-18T06:11:07;95.07;;;89.68;;
3000;SDS011;1510;51.072;6.678;2022-12-18T06:13:34;87.22;;;81.40;;
3000;SDS011;1510;51.072;6.678;2022-12-18T06:16:03;94.80;;;88.35;;
3000;SDS011;1510;51.072;6.678;2022-12-18T06:18:30;86.93;;;81.68;;
3000;SDS011;1510;51.072;6.678;2022-12-18T06:20:57;92.82;;;86.90;;
3000;SDS011;1510;51.072;6.678;2022-12-18T06:23:24;89.15;;;83.63;;
3000;SDS011;1510;51.072;6.678;2022-12-18T06:25:51;74.30;;;69.18;;
3000;SDS011;1510;51.072;6.678;2022-12-18T06:28:18;69.35;;;63.85;;
3000;SDS011;1510;51.072;6.678;2022-12-18T06:30:45;53.78;;;49.30;;
3000;SDS011;1510;51.072;6.678;2022-12-18T06:36:12;32.58;;;29.48;;
3000;SDS011;1510;51.072;6.678;2022-12-18T06:38:41;30.33;;;27.45;;
3000;SDS011;1510;51.072;6.678;2022-12-18T06:41:09;33.80;;;25.58;;
3000;SDS011;1510;51.072;6.678;2022-12-18T06:46:36;27.38;;;24.98;;
3000;SDS011;1510;51.072;6.678;2022-12-18T06:51:56;35.50;;;26.00;;
3000;SDS011;1510;51.072;6.678;2022-12-18T06:54:23;32.75;;;26.15;;
3000;SDS011;1510;51.072;6.678;2022-12-18T06:56:50;34.03;;;28.40;;
3000;SDS011;1510;51.072;6.678;2022-12-18T06:59:17;39.33;;;24.65;;
3000;SDS011;1510;51.072;6.678;2022-12-18T07:01:43;26.77;;;23.05;;
3000;SDS011;1510;51.072;6.678;2022-12-18T07:04:10;40.88;;;25.73;;
3000;SDS011;1510;51.072;6.678;2022-12-18T07:06:38;24.27;;;18.48;;
3000;SDS011;1510;51.072;6.678;2022-12-18T07:09:05;34.97;;;21.60;;
3000;SDS011;1510;51.072;6.678;2022-12-18T07:11:32;30.80;;;25.65;;
3000;SDS011;1510;51.072;6.678;2022-12-18T07:13:58;25.10;;;20.90;;
3000;SDS011;1510;51.072;6.678;2022-12-18T07:16:25;38.67;;;29.15;;
3000;SDS011;1510;51.072;6.678;2022-12-18T07:18:53;35.13;;;28.35;;
3000;SDS011;1510;51.072;6.678;2022-12-18T07:26:59;42.17;;;27.05;;
3000;SDS011;1510;51.072;6.678;2022-12-18T07:29:25;28.33;;;23.85;;
3000;SDS011;1510;51.072;6.678;2022-12-18T07:31:52;35.30;;;23.17;;
3000;SDS011;1510;51.072;6.678;2022-12-18T07:34:19;38.83;;;25.85;;
3000;SDS011;1510;51.072;6.678;2022-12-18T07:36:48;29.85;;;22.73;;
3000;SDS011;1510;51.072;6.678;2022-12-18T07:39:15;37.35;;;21.30;;
3000;SDS011;1510;51.072;6.678;2022-12-18T07:41:41;39.75;;;23.17;;
3000;SDS011;1510;51.072;6.678;2022-12-18T07:44:12;31.95;;;20.90;;
3000;SDS011;1510;51.072;6.678;2022-12-18T07:46:39;48.70;;;24.73;;
3000;SDS011;1510;51.072;6.678;2022-12-18T07:49:05;38.70;;;28.25;;
3000;SDS011;1510;51.072;6.678;2022-12-18T07:51:32;29.70;;;22.13;;
3000;SDS011;1510;51.072;6.678;2022-12-18T07:53:59;31.45;;;24.67;;
3000;SDS011;1510;51.072;6.678;2022-12-18T07:56:26;34.30;;;23.27;;
3000;SDS011;1510;51.072;6.678;2022-12-18T07:58:52;31.05;;;20.95;;
3000;SDS011;1510;51.072;6.678;2022-12-18T08:01:21;30.15;;;24.67;;
3000;SDS011;1510;51.072;6.678;2022-12-18T08:03:47;39.25;;;27.85;;
3000;SDS011;1510;51.072;6.678;2022-12-18T08:06:14;34.97;;;24.90;;
3000;SDS011;1510;51.072;6.678;2022-12-18T08:08:41;33.55;;;27.33;;
3000;SDS011;1510;51.072;6.678;2022-12-18T08:11:08;34.50;;;26.30;;
3000;SDS011;1510;51.072;6.678;2022-12-18T08:13:34;30.27;;;24.42;;
3000;SDS011;1510;51.072;6.678;2022-12-18T08:16:02;31.40;;;28.05;;
3000;SDS011;1510;51.072;6.678;2022-12-18T08:18:32;39.47;;;35.55;;
3000;SDS011;1510;51.072;6.678;2022-12-18T08:21:07;41.25;;;33.45;;
3000;SDS011;1510;51.072;6.678;2022-12-18T08:23:34;28.88;;;25.63;;
3000;SDS011;1510;51.072;6.678;2022-12-18T08:26:01;36.10;;;24.92;;
3000;SDS011;1510;51.072;6.678;2022-12-18T08:28:27;29.50;;;21.40;;
3000;SDS011;1510;51.072;6.678;2022-12-18T08:30:54;33.17;;;20.15;;
3000;SDS011;1510;51.072;6.678;2022-12-18T08:33:21;32.70;;;20.08;;
3000;SDS011;1510;51.072;6.678;2022-12-18T08:35:49;26.30;;;17.27;;
3000;SDS011;1510;51.072;6.678;2022-12-18T08:38:15;21.27;;;13.90;;
3000;SDS011;1510;51.072;6.678;2022-12-18T08:40:42;24.77;;;17.45;;
3000;SDS011;1510;51.072;6.678;2022-12-18T08:43:09;26.00;;;17.95;;
3000;SDS011;1510;51.072;6.678;2022-12-18T08:45:54;29.33;;;19.10;;
3000;SDS011;1510;51.072;6.678;2022-12-18T08:48:21;33.88;;;18.50;;
3000;SDS011;1510;51.072;6.678;2022-12-18T08:50:54;26.17;;;15.57;;
3000;SDS011;1510;51.072;6.678;2022-12-18T08:53:22;25.83;;;15.05;;
3000;SDS011;1510;51.072;6.678;2022-12-18T08:55:49;28.70;;;15.32;;
3000;SDS011;1510;51.072;6.678;2022-12-18T08:58:16;29.77;;;16.88;;
3000;SDS011;1510;51.072;6.678;2022-12-18T09:00:42;25.95;;;14.50;;
3000;SDS011;1510;51.072;6.678;2022-12-18T09:03:10;23.88;;;13.35;;
3000;SDS011;1510;51.072;6.678;2022-12-18T09:05:38;23.48;;;14.70;;
3000;SDS011;1510;51.072;6.678;2022-12-18T09:08:06;38.85;;;16.80;;
3000;SDS011;1510;51.072;6.678;2022-12-18T09:10:33;31.02;;;15.77;;
3000;SDS011;1510;51.072;6.678;2022-12-18T09:12:59;24.75;;;15.45;;
3000;SDS011;1510;51.072;6.678;2022-12-18T09:15:26;21.58;;;13.82;;
3000;SDS011;1510;51.072;6.678;2022-12-18T09:17:53;23.48;;;13.80;;
3000;SDS011;1510;51.072;6.678;2022-12-18T09:20:20;23.25;;;13.90;;
3000;SDS011;1510;51.072;6.678;2022-12-18T09:22:46;23.77;;;14.38;;
3000;SDS011;1510;51.072;6.678;2022-12-18T09:25:14;26.73;;;12.73;;
3000;SDS011;1510;51.072;6.678;2022-12-18T09:27:41;25.05;;;13.75;;
3000;SDS011;1510;51.072;6.678;2022-12-18T09:30:08;25.08;;;15.05;;
3000;SDS011;1510;51.072;6.678;2022-12-18T09:32:36;29.33;;;17.17;;
3000;SDS011;1510;51.072;6.678;2022-12-18T09:35:03;23.83;;;14.93;;
3000;SDS011;1510;51.072;6.678;2022-12-18T09:37:30;26.30;;;13.15;;
3000;SDS011;1510;51.072;6.678;2022-12-18T09:39:57;23.30;;;12.88;;
3000;SDS011;1510;51.072;6.678;2022-12-18T09:42:25;21.33;;;16.25;;
3000;SDS011;1510;51.072;6.678;2022-12-18T09:44:52;23.60;;;13.10;;
3000;SDS011;1510;51.072;6.678;2022-12-18T09:47:21;18.08;;;11.52;;
3000;SDS011;1510;51.072;6.678;2022-12-18T09:49:50;19.40;;;12.60;;
3000;SDS011;1510;51.072;6.678;2022-12-18T09:52:21;21.50;;;14.43;;
3000;SDS011;1510;51.072;6.678;2022-12-18T09:54:53;17.80;;;12.27;;
3000;SDS011;1510;51.072;6.678;2022-12-18T09:57:23;23.80;;;13.15;;
3000;SDS011;1510;51.072;6.678;2022-12-18T09:59:53;25.05;;;13.82;;
3000;SDS011;1510;51.072;6.678;2022-12-18T10:02:22;29.92;;;15.27;;
3000;SDS011;1510;51.072;6.678;2022-12-18T10:04:54;23.50;;;14.48;;
3000;SDS011;1510;51.072;6.678;2022-12-18T10:07:29;29.33;;;13.52;;
3000;SDS011;1510;51.072;6.678;2022-12-18T10:10:05;22.23;;;12.93;;
3000;SDS011;1510;51.072;6.678;2022-12-18T10:12:41;21.95;;;12.80;;
3000;SDS011;1510;51.072;6.678;2022-12-18T10:15:13;23.38;;;14.27;;
3000;SDS011;1510;51.072;6.678;2022-12-18T10:17:50;23.55;;;10.85;;
3000;SDS011;1510;51.072;6.678;2022-12-18T10:20:24;24.23;;;12.98;;
3000;SDS011;1510;51.072;6.678;2022-12-18T10:22:57;22.58;;;13.90;;
3000;SDS011;1510;51.072;6.678;2022-12-18T10:25:31;23.70;;;12.80;;
3000;SDS011;1510;51.072;6.678;2022-12-18T10:28:09;26.67;;;15.65;;
3000;SDS011;1510;51.072;6.678;2022-12-18T10:30:39;26.67;;;15.50;;
3000;SDS011;1510;51.072;6.678;2022-12-18T10:33:10;25.27;;;13.30;;
3000;SDS011;1510;51.072;6.678;2022-12-18T10:35:39;26.67;;;14.50;;
3000;SDS011;1510;51.072;6.678;2022-12-18T10:38:19;27.97;;;14.00;;
3000;SDS011;1510;51.072;6.678;2022-12-18T10:40:49;24.95;;;13.32;;
3000;SDS011;1510;51.072;6.678;2022-12-18T10:43:21;22.23;;;12.10;;
3000;SDS011;1510;51.072;6.678;2022-12-18T10:46:03;27.97;;;14.60;;
3000;SDS011;1510;51.072;6.678;2022-12-18T10:48:39;22.75;;;12.43;;
3000;SDS011;1510;51.072;6.678;2022-12-18T10:51:22;25.23;;;13.25;;
3000;SDS011;1510;51.072;6.678;2022-12-18T10:53:51;21.23;;;11.55;;
3000;SDS011;1510;51.072;6.678;2022-12-18T10:56:21;22.00;;;11.98;;
3000;SDS011;1510;51.072;6.678;2022-12-18T10:58:56;19.48;;;11.40;;
3000;SDS011;1510;51.072;6.678;2022-12-18T11:01:25;25.50;;;14.40;;
3000;SDS011;1510;51.072;6.678;2022-12-18T11:04:02;20.57;;;12.83;;
3000;SDS011;1510;51.072;6.678;2022-12-18T11:06:35;23.57;;;13.27;;
3000;SDS011;1510;51.072;6.678;2022-12-18T11:09:20;19.80;;;12.90;;
3000;SDS011;1510;51.072;6.678;2022-12-18T11:11:48;27.10;;;15.20;;
3000;SDS011;1510;51.072;6.678;2022-12-18T11:14:22;25.08;;;13.52;;
3000;SDS011;1510;51.072;6.678;2022-12-18T11:16:51;17.20;;;9.60;;
3000;SDS011;1510;51.072;6.678;2022-12-18T11:19:26;27.93;;;14.17;;
3000;SDS011;1510;51.072;6.678;2022-12-18T11:21:58;25.80;;;14.67;;
3000;SDS011;1510;51.072;6.678;2022-12-18T11:24:27;16.50;;;10.40;;
3000;SDS011;1510;51.072;6.678;2022-12-18T11:26:56;21.63;;;11.82;;
3000;SDS011;1510;51.072;6.678;2022-12-18T11:29:27;23.90;;;11.90;;
3000;SDS011;1510;51.072;6.678;2022-12-18T11:35:11;22.23;;;12.67;;
3000;SDS011;1510;51.072;6.678;2022-12-18T11:37:43;21.20;;;12.82;;
3000;SDS011;1510;51.072;6.678;2022-12-18T11:40:15;27.50;;;13.93;;
3000;SDS011;1510;51.072;6.678;2022-12-18T11:42:46;24.80;;;13.63;;
3000;SDS011;1510;51.072;6.678;2022-12-18T11:45:23;29.80;;;13.43;;
3000;SDS011;1510;51.072;6.678;2022-12-18T11:47:55;30.53;;;12.50;;
3000;SDS011;1510;51.072;6.678;2022-12-18T11:50:27;28.63;;;14.63;;
3000;SDS011;1510;51.072;6.678;2022-12-18T11:52:57;25.38;;;12.80;;
3000;SDS011;1510;51.072;6.678;2022-12-18T11:55:27;20.30;;;12.20;;
3000;SDS011;1510;51.072;6.678;2022-12-18T11:58:03;28.58;;;13.82;;
3000;SDS011;1510;51.072;6.678;2022-12-18T12:00:39;28.87;;;16.37;;
3000;SDS011;1510;51.072;6.678;2022-12-18T12:03:27;31.43;;;15.40;;
3000;SDS011;1510;51.072;6.678;2022-12-18T12:06:07;28.10;;;14.17;;
3000;SDS011;1510;51.072;6.678;2022-12-18T12:08:42;25.37;;;13.37;;
3000;SDS011;1510;51.072;6.678;2022-12-18T12:11:23;20.95;;;12.40;;
3000;SDS011;1510;51.072;6.678;2022-12-18T12:14:03;26.83;;;15.33;;
3000;SDS011;1510;51.072;6.678;2022-12-18T12:16:44;25.60;;;14.33;;
3000;SDS011;1510;51.072;6.678;2022-12-18T12:19:20;25.60;;;14.67;;
3000;SDS011;1510;51.072;6.678;2022-12-18T12:21:58;22.40;;;12.00;;
3000;SDS011;1510;51.072;6.678;2022-12-18T12:24:36;27.87;;;14.17;;
3000;SDS011;1510;51.072;6.678;2022-12-18T12:27:14;26.17;;;15.27;;
3000;SDS011;1510;51.072;6.678;2022-12-18T12:29:50;28.53;;;15.30;;
3000;SDS011;1510;51.072;6.678;2022-12-18T12:32:30;24.80;;;14.00;;
3000;SDS011;1510;51.072;6.678;2022-12-18T12:35:10;27.43;;;13.83;;
3000;SDS011;1510;51.072;6.678;2022-12-18T12:37:47;24.20;;;12.60;;
3000;SDS011;1510;51.072;6.678;2022-12-18T12:40:20;28.90;;;14.90;;
3000;SDS011;1510;51.072;6.678;2022-12-18T12:42:51;20.77;;;12.07;;
3000;SDS011;1510;51.072;6.678;2022-12-18T12:45:40;25.83;;;14.37;;
3000;SDS011;1510;51.072;6.678;2022-12-18T12:48:16;28.33;;;14.80;;
3000;SDS011;1510;51.072;6.678;2022-12-18T12:50:44;23.43;;;12.97;;
3000;SDS011;1510;51.072;6.678;2022-12-18T12:53:14;28.40;;;15.97;;
3000;SDS011;1510;51.072;6.678;2022-12-18T12:55:48;33.35;;;18.55;;
3000;SDS011;1510;51.072;6.678;2022-12-18T12:58:16;27.90;;;16.20;;
3000;SDS011;1510;51.072;6.678;2022-12-18T13:00:58;30.23;;;15.87;;
3000;SDS011;1510;51.072;6.678;2022-12-18T13:03:39;35.55;;;18.95;;
3000;SDS011;1510;51.072;6.678;2022-12-18T13:06:12;29.13;;;17.30;;
3000;SDS011;1510;51.072;6.678;2022-12-18T13:08:54;36.23;;;19.67;;
3000;SDS011;1510;51.072;6.678;2022-12-18T13:11:30;27.77;;;15.50;;
3000;SDS011;1510;51.072;6.678;2022-12-18T13:14:23;28.98;;;17.90;;
3000;SDS011;1510;51.072;6.678;2022-12-18T13:16:52;24.97;;;13.23;;
3000;SDS011;1510;51.072;6.678;2022-12-18T13:20:04;26.60;;;16.53;;
3000;SDS011;1510;51.072;6.678;2022-12-18T13:22:36;30.13;;;15.67;;
3000;SDS011;1510;51.072;6.678;2022-12-18T13:28:10;25.13;;;15.33;;
3000;SDS011;1510;51.072;6.678;2022-12-18T13:30:46;26.03;;;13.43;;
3000;SDS011;1510;51.072;6.678;2022-12-18T13:33:37;25.20;;;14.80;;
3000;SDS011;1510;51.072;6.678;2022-12-18T13:48:03;33.50;;;18.33;;
3000;SDS011;1510;51.072;6.678;2022-12-18T13:50:30;21.00;;;12.63;;
3000;SDS011;1510;51.072;6.678;2022-12-18T13:52:58;27.20;;;15.83;;
3000;SDS011;1510;51.072;6.678;2022-12-18T13:55:25;31.63;;;19.90;;
3000;SDS011;1510;51.072;6.678;2022-12-18T13:58:02;24.90;;;15.80;;
3000;SDS011;1510;51.072;6.678;2022-12-18T14:00:30;27.50;;;16.50;;
3000;SDS011;1510;51.072;6.678;2022-12-18T14:02:57;28.93;;;14.90;;
3000;SDS011;1510;51.072;6.678;2022-12-18T14:05:25;34.58;;;18.38;;
3000;SDS011;1510;51.072;6.678;2022-12-18T14:07:53;30.40;;;17.70;;
3000;SDS011;1510;51.072;6.678;2022-12-18T14:10:21;35.03;;;19.90;;
3000;SDS011;1510;51.072;6.678;2022-12-18T14:12:50;28.97;;;14.57;;
3000;SDS011;1510;51.072;6.678;2022-12-18T14:15:24;30.10;;;17.30;;
3000;SDS011;1510;51.072;6.678;2022-12-18T14:17:57;27.60;;;16.37;;
3000;SDS011;1510;51.072;6.678;2022-12-18T14:20:27;22.30;;;13.17;;
3000;SDS011;1510;51.072;6.678;2022-12-18T14:22:57;27.33;;;15.43;;
3000;SDS011;1510;51.072;6.678;2022-12-18T14:25:26;27.70;;;16.98;;
3000;SDS011;1510;51.072;6.678;2022-12-18T14:28:02;31.33;;;18.13;;
3000;SDS011;1510;51.072;6.678;2022-12-18T14:30:35;30.17;;;18.23;;
3000;SDS011;1510;51.072;6.678;2022-12-18T14:33:03;35.40;;;19.50;;
3000;SDS011;1510;51.072;6.678;2022-12-18T14:35:31;27.80;;;14.97;;
3000;SDS011;1510;51.072;6.678;2022-12-18T14:38:10;35.13;;;21.03;;
3000;SDS011;1510;51.072;6.678;2022-12-18T14:40:48;32.47;;;16.57;;
3000;SDS011;1510;51.072;6.678;2022-12-18T14:43:18;31.63;;;17.30;;
3000;SDS011;1510;51.072;6.678;2022-12-18T14:45:45;27.77;;;15.30;;
3000;SDS011;1510;51.072;6.678;2022-12-18T14:48:14;28.73;;;16.48;;
3000;SDS011;1510;51.072;6.678;2022-12-18T14:50:42;34.30;;;17.57;;
3000;SDS011;1510;51.072;6.678;2022-12-18T14:53:18;32.85;;;15.70;;
3000;SDS011;1510;51.072;6.678;2022-12-18T14:55:48;32.57;;;18.20;;
3000;SDS011;1510;51.072;6.678;2022-12-18T14:58:16;24.90;;;14.90;;
3000;SDS011;1510;51.072;6.678;2022-12-18T15:00:44;32.05;;;18.33;;
3000;SDS011;1510;51.072;6.678;2022-12-18T15:03:12;34.53;;;17.27;;
3000;SDS011;1510;51.072;6.678;2022-12-18T15:05:44;38.15;;;17.52;;
3000;SDS011;1510;51.072;6.678;2022-12-18T15:08:24;28.33;;;18.70;;
3000;SDS011;1510;51.072;6.678;2022-12-18T15:10:56;41.23;;;21.60;;
3000;SDS011;1510;51.072;6.678;2022-12-18T15:13:23;42.88;;;19.85;;
3000;SDS011;1510;51.072;6.678;2022-12-18T15:15:51;32.77;;;16.70;;
3000;SDS011;1510;51.072;6.678;2022-12-18T15:18:19;34.47;;;16.37;;
3000;SDS011;1510;51.072;6.678;2022-12-18T15:20:50;38.28;;;18.85;;
3000;SDS011;1510;51.072;6.678;2022-12-18T15:23:19;36.03;;;19.27;;
3000;SDS011;1510;51.072;6.678;2022-12-18T15:25:48;35.83;;;18.17;;
3000;SDS011;1510;51.072;6.678;2022-12-18T15:28:23;36.90;;;18.90;;
3000;SDS011;1510;51.072;6.678;2022-12-18T15:31:02;32.58;;;15.50;;
3000;SDS011;1510;51.072;6.678;2022-12-18T15:33:32;33.20;;;16.55;;